sensor_id;sensor_type;location;lat;lon;timestamp;P1;durP1;ratioP1;P2;durP2;ratioP2
4748;SDS011;2388;53.582;9.962;2024-02-28T00:01:52;28.00;;;20.50;;
4748;SDS011;2388;53.582;9.962;2024-02-28T00:04:18;27.20;;;20.20;;
4748;SDS011;2388;53.582;9.962;2024-02-28T00:06:44;26.43;;;19.60;;
4748;SDS011;2388;53.582;9.962;2024-02-28T00:09:11;28.63;;;21.37;;
4748;SDS011;2388;53.582;9.962;2024-02-28T00:11:44;30.00;;;19.93;;
4748;SDS011;2388;53.582;9.962;2024-02-28T00:14:11;29.27;;;20.20;;
4748;SDS011;2388;53.582;9.962;2024-02-28T00:16:41;28.60;;;20.13;;
4748;SDS011;2388;53.582;9.962;2024-02-28T00:19:10;27.70;;;19.63;;
4748;SDS011;2388;53.582;9.962;2024-02-28T00:21:37;30.47;;;21.20;;
4748;SDS011;2388;53.582;9.962;2024-02-28T00:24:03;28.57;;;20.10;;
4748;SDS011;2388;53.582;9.962;2024-02-28T00:26:29;30.60;;;20.90;;
4748;SDS011;2388;53.582;9.962;2024-02-28T00:28:54;34.13;;;21.60;;
4748;SDS011;2388;53.582;9.962;2024-02-28T00:31:20;29.77;;;20.20;;
4748;SDS011;2388;53.582;9.962;2024-02-28T00:33:46;31.20;;;21.63;;
4748;SDS011;2388;53.582;9.962;2024-02-28T00:36:12;28.10;;;20.67;;
4748;SDS011;2388;53.582;9.962;2024-02-28T00:38:38;30.90;;;20.00;;
4748;SDS011;2388;53.582;9.962;2024-02-28T00:41:03;28.63;;;21.50;;
4748;SDS011;2388;53.582;9.962;2024-02-28T00:43:29;28.90;;;20.13;;
4748;SDS011;2388;53.582;9.962;2024-02-28T00:45:54;31.93;;;20.93;;
4748;SDS011;2388;53.582;9.962;2024-02-28T00:48:20;28.50;;;20.83;;
4748;SDS011;2388;53.582;9.962;2024-02-28T00:50:47;33.00;;;21.40;;
4748;SDS011;2388;53.582;9.962;2024-02-28T00:53:12;32.77;;;21.43;;
4748;SDS011;2388;53.582;9.962;2024-02-28T00:55:38;32.30;;;21.37;;
4748;SDS011;2388;53.582;9.962;2024-02-28T00:58:03;32.60;;;21.70;;
4748;SDS011;2388;53.582;9.962;2024-02-28T01:00:28;31.23;;;21.50;;
4748;SDS011;2388;53.582;9.962;2024-02-28T01:02:54;32.70;;;21.23;;
4748;SDS011;2388;53.582;9.962;2024-02-28T01:05:20;33.93;;;21.60;;
4748;SDS011;2388;53.582;9.962;2024-02-28T01:07:45;32.87;;;21.97;;
4748;SDS011;2388;53.582;9.962;2024-02-28T01:10:10;34.10;;;21.67;;
4748;SDS011;2388;53.582;9.962;2024-02-28T01:12:36;31.10;;;19.80;;
4748;SDS011;2388;53.582;9.962;2024-02-28T01:15:02;31.23;;;20.03;;
4748;SDS011;2388;53.582;9.962;2024-02-28T01:17:28;28.57;;;19.37;;
4748;SDS011;2388;53.582;9.962;2024-02-28T01:19:54;28.10;;;19.00;;
4748;SDS011;2388;53.582;9.962;2024-02-28T01:22:19;29.37;;;19.70;;
4748;SDS011;2388;53.582;9.962;2024-02-28T01:24:45;28.70;;;20.10;;
4748;SDS011;2388;53.582;9.962;2024-02-28T01:27:10;32.27;;;20.20;;
4748;SDS011;2388;53.582;9.962;2024-02-28T01:29:36;29.37;;;18.80;;
4748;SDS011;2388;53.582;9.962;2024-02-28T01:32:01;27.80;;;18.63;;
4748;SDS011;2388;53.582;9.962;2024-02-28T01:34:27;28.63;;;19.93;;
4748;SDS011;2388;53.582;9.962;2024-02-28T01:36:53;30.37;;;19.80;;
4748;SDS011;2388;53.582;9.962;2024-02-28T01:39:18;29.90;;;19.17;;
4748;SDS011;2388;53.582;9.962;2024-02-28T01:41:53;30.90;;;20.40;;
4748;SDS011;2388;53.582;9.962;2024-02-28T01:44:19;28.40;;;18.43;;
4748;SDS011;2388;53.582;9.962;2024-02-28T01:46:45;27.30;;;18.60;;
4748;SDS011;2388;53.582;9.962;2024-02-28T01:49:11;30.13;;;19.03;;
4748;SDS011;2388;53.582;9.962;2024-02-28T01:51:37;30.40;;;19.37;;
4748;SDS011;2388;53.582;9.962;2024-02-28T01:54:02;31.70;;;18.50;;
4748;SDS011;2388;53.582;9.962;2024-02-28T01:56:28;29.17;;;19.17;;
4748;SDS011;2388;53.582;9.962;2024-02-28T01:58:55;27.63;;;18.13;;
4748;SDS011;2388;53.582;9.962;2024-02-28T02:01:22;26.57;;;17.50;;
4748;SDS011;2388;53.582;9.962;2024-02-28T02:03:47;26.73;;;18.37;;
4748;SDS011;2388;53.582;9.962;2024-02-28T02:06:13;29.13;;;19.20;;
4748;SDS011;2388;53.582;9.962;2024-02-28T02:08:39;29.57;;;18.53;;
4748;SDS011;2388;53.582;9.962;2024-02-28T02:11:05;29.03;;;18.77;;
4748;SDS011;2388;53.582;9.962;2024-02-28T02:13:31;27.80;;;17.57;;
4748;SDS011;2388;53.582;9.962;2024-02-28T02:15:57;27.70;;;17.60;;
4748;SDS011;2388;53.582;9.962;2024-02-28T02:18:22;26.77;;;17.57;;
4748;SDS011;2388;53.582;9.962;2024-02-28T02:20:52;27.43;;;18.27;;
4748;SDS011;2388;53.582;9.962;2024-02-28T02:23:22;28.67;;;18.63;;
4748;SDS011;2388;53.582;9.962;2024-02-28T02:25:48;28.93;;;17.40;;
4748;SDS011;2388;53.582;9.962;2024-02-28T02:28:14;31.20;;;18.57;;
4748;SDS011;2388;53.582;9.962;2024-02-28T02:30:40;25.43;;;16.47;;
4748;SDS011;2388;53.582;9.962;2024-02-28T02:33:06;26.67;;;16.83;;
4748;SDS011;2388;53.582;9.962;2024-02-28T02:35:33;28.17;;;17.03;;
4748;SDS011;2388;53.582;9.962;2024-02-28T02:37:59;27.40;;;16.37;;
4748;SDS011;2388;53.582;9.962;2024-02-28T02:40:24;27.77;;;17.30;;
4748;SDS011;2388;53.582;9.962;2024-02-28T02:42:50;24.50;;;15.47;;
4748;SDS011;2388;53.582;9.962;2024-02-28T02:45:16;25.13;;;16.03;;
4748;SDS011;2388;53.582;9.962;2024-02-28T02:47:41;24.60;;;15.40;;
4748;SDS011;2388;53.582;9.962;2024-02-28T02:50:08;26.43;;;16.07;;
4748;SDS011;2388;53.582;9.962;2024-02-28T02:52:35;25.30;;;14.97;;
4748;SDS011;2388;53.582;9.962;2024-02-28T02:55:00;24.27;;;15.73;;
4748;SDS011;2388;53.582;9.962;2024-02-28T02:57:26;24.10;;;16.13;;
4748;SDS011;2388;53.582;9.962;2024-02-28T02:59:51;25.53;;;14.20;;
4748;SDS011;2388;53.582;9.962;2024-02-28T03:02:17;22.90;;;14.93;;
4748;SDS011;2388;53.582;9.962;2024-02-28T03:04:42;25.53;;;14.90;;
4748;SDS011;2388;53.582;9.962;2024-02-28T03:07:08;21.30;;;14.37;;
4748;SDS011;2388;53.582;9.962;2024-02-28T03:09:33;24.00;;;14.97;;
4748;SDS011;2388;53.582;9.962;2024-02-28T03:11:59;24.97;;;15.10;;
4748;SDS011;2388;53.582;9.962;2024-02-28T03:14:25;24.67;;;15.43;;
4748;SDS011;2388;53.582;9.962;2024-02-28T03:16:52;21.67;;;13.83;;
4748;SDS011;2388;53.582;9.962;2024-02-28T03:19:18;24.92;;;16.23;;
4748;SDS011;2388;53.582;9.962;2024-02-28T03:21:44;24.03;;;14.90;;
4748;SDS011;2388;53.582;9.962;2024-02-28T03:24:09;22.00;;;13.10;;
4748;SDS011;2388;53.582;9.962;2024-02-28T03:26:35;22.47;;;14.30;;
4748;SDS011;2388;53.582;9.962;2024-02-28T03:29:00;21.60;;;13.13;;
4748;SDS011;2388;53.582;9.962;2024-02-28T03:31:26;20.40;;;12.90;;
4748;SDS011;2388;53.582;9.962;2024-02-28T03:33:52;23.90;;;14.37;;
4748;SDS011;2388;53.582;9.962;2024-02-28T03:36:17;20.27;;;13.60;;
4748;SDS011;2388;53.582;9.962;2024-02-28T03:38:43;23.07;;;13.27;;
4748;SDS011;2388;53.582;9.962;2024-02-28T03:41:08;20.13;;;13.63;;
4748;SDS011;2388;53.582;9.962;2024-02-28T03:43:34;21.97;;;14.50;;
4748;SDS011;2388;53.582;9.962;2024-02-28T03:46:00;19.27;;;13.13;;
4748;SDS011;2388;53.582;9.962;2024-02-28T03:48:26;21.70;;;13.10;;
4748;SDS011;2388;53.582;9.962;2024-02-28T03:50:51;21.43;;;13.20;;
4748;SDS011;2388;53.582;9.962;2024-02-28T03:53:17;21.73;;;14.33;;
4748;SDS011;2388;53.582;9.962;2024-02-28T03:55:42;25.07;;;14.60;;
4748;SDS011;2388;53.582;9.962;2024-02-28T03:58:11;22.07;;;13.90;;
4748;SDS011;2388;53.582;9.962;2024-02-28T04:00:37;20.33;;;13.70;;
4748;SDS011;2388;53.582;9.962;2024-02-28T04:03:03;23.03;;;14.27;;
4748;SDS011;2388;53.582;9.962;2024-02-28T04:05:29;22.80;;;14.43;;
4748;SDS011;2388;53.582;9.962;2024-02-28T04:07:55;22.60;;;13.20;;
4748;SDS011;2388;53.582;9.962;2024-02-28T04:10:20;21.33;;;13.70;;
4748;SDS011;2388;53.582;9.962;2024-02-28T04:12:46;24.03;;;15.00;;
4748;SDS011;2388;53.582;9.962;2024-02-28T04:15:12;23.40;;;14.43;;
4748;SDS011;2388;53.582;9.962;2024-02-28T04:17:38;20.30;;;13.50;;
4748;SDS011;2388;53.582;9.962;2024-02-28T04:20:07;23.70;;;14.60;;
4748;SDS011;2388;53.582;9.962;2024-02-28T04:22:35;21.00;;;13.80;;
4748;SDS011;2388;53.582;9.962;2024-02-28T04:25:00;24.07;;;14.70;;
4748;SDS011;2388;53.582;9.962;2024-02-28T04:27:26;22.17;;;14.97;;
4748;SDS011;2388;53.582;9.962;2024-02-28T04:29:51;26.10;;;15.27;;
4748;SDS011;2388;53.582;9.962;2024-02-28T04:32:17;22.97;;;13.80;;
4748;SDS011;2388;53.582;9.962;2024-02-28T04:34:43;26.30;;;15.40;;
4748;SDS011;2388;53.582;9.962;2024-02-28T04:37:08;21.67;;;13.80;;
4748;SDS011;2388;53.582;9.962;2024-02-28T04:39:33;22.30;;;15.10;;
4748;SDS011;2388;53.582;9.962;2024-02-28T04:41:59;25.03;;;15.17;;
4748;SDS011;2388;53.582;9.962;2024-02-28T04:44:24;22.77;;;14.97;;
4748;SDS011;2388;53.582;9.962;2024-02-28T04:46:50;23.20;;;13.90;;
4748;SDS011;2388;53.582;9.962;2024-02-28T04:49:15;27.07;;;15.60;;
4748;SDS011;2388;53.582;9.962;2024-02-28T04:51:41;21.80;;;14.00;;
4748;SDS011;2388;53.582;9.962;2024-02-28T04:54:06;26.93;;;15.87;;
4748;SDS011;2388;53.582;9.962;2024-02-28T04:56:32;24.33;;;15.77;;
4748;SDS011;2388;53.582;9.962;2024-02-28T04:58:57;24.67;;;15.57;;
4748;SDS011;2388;53.582;9.962;2024-02-28T05:01:23;26.77;;;15.83;;
4748;SDS011;2388;53.582;9.962;2024-02-28T05:03:48;26.47;;;15.97;;
4748;SDS011;2388;53.582;9.962;2024-02-28T05:06:13;26.30;;;15.47;;
4748;SDS011;2388;53.582;9.962;2024-02-28T05:08:39;24.00;;;15.20;;
4748;SDS011;2388;53.582;9.962;2024-02-28T05:11:04;25.27;;;15.60;;
4748;SDS011;2388;53.582;9.962;2024-02-28T05:13:30;24.00;;;14.90;;
4748;SDS011;2388;53.582;9.962;2024-02-28T05:15:55;24.57;;;16.43;;
4748;SDS011;2388;53.582;9.962;2024-02-28T05:18:21;22.87;;;14.40;;
4748;SDS011;2388;53.582;9.962;2024-02-28T05:20:47;24.20;;;15.13;;
4748;SDS011;2388;53.582;9.962;2024-02-28T05:23:12;27.73;;;16.10;;
4748;SDS011;2388;53.582;9.962;2024-02-28T05:25:38;23.87;;;15.30;;
4748;SDS011;2388;53.582;9.962;2024-02-28T05:28:03;23.97;;;14.90;;
4748;SDS011;2388;53.582;9.962;2024-02-28T05:30:29;25.80;;;15.67;;
4748;SDS011;2388;53.582;9.962;2024-02-28T05:32:55;23.40;;;15.17;;
4748;SDS011;2388;53.582;9.962;2024-02-28T05:35:21;23.63;;;15.47;;
4748;SDS011;2388;53.582;9.962;2024-02-28T05:37:46;22.27;;;15.33;;
4748;SDS011;2388;53.582;9.962;2024-02-28T05:40:11;24.80;;;16.13;;
4748;SDS011;2388;53.582;9.962;2024-02-28T05:42:37;25.43;;;15.57;;
4748;SDS011;2388;53.582;9.962;2024-02-28T05:45:04;27.00;;;16.80;;
4748;SDS011;2388;53.582;9.962;2024-02-28T05:47:30;26.80;;;16.87;;
4748;SDS011;2388;53.582;9.962;2024-02-28T05:49:56;25.13;;;15.67;;
4748;SDS011;2388;53.582;9.962;2024-02-28T05:52:23;23.43;;;15.90;;
4748;SDS011;2388;53.582;9.962;2024-02-28T05:54:50;26.53;;;16.67;;
4748;SDS011;2388;53.582;9.962;2024-02-28T05:57:16;26.20;;;15.80;;
4748;SDS011;2388;53.582;9.962;2024-02-28T05:59:41;27.97;;;17.37;;
4748;SDS011;2388;53.582;9.962;2024-02-28T06:02:07;24.50;;;15.70;;
4748;SDS011;2388;53.582;9.962;2024-02-28T06:04:32;21.60;;;14.77;;
4748;SDS011;2388;53.582;9.962;2024-02-28T06:06:58;27.50;;;17.57;;
4748;SDS011;2388;53.582;9.962;2024-02-28T06:09:24;24.20;;;16.83;;
4748;SDS011;2388;53.582;9.962;2024-02-28T06:11:50;31.17;;;17.27;;
4748;SDS011;2388;53.582;9.962;2024-02-28T06:14:16;22.77;;;14.97;;
4748;SDS011;2388;53.582;9.962;2024-02-28T06:16:42;22.90;;;16.57;;
4748;SDS011;2388;53.582;9.962;2024-02-28T06:19:08;25.77;;;16.10;;
4748;SDS011;2388;53.582;9.962;2024-02-28T06:21:33;23.90;;;15.80;;
4748;SDS011;2388;53.582;9.962;2024-02-28T06:23:58;21.67;;;16.20;;
4748;SDS011;2388;53.582;9.962;2024-02-28T06:26:24;24.53;;;16.00;;
4748;SDS011;2388;53.582;9.962;2024-02-28T06:28:50;22.17;;;14.57;;
4748;SDS011;2388;53.582;9.962;2024-02-28T06:31:16;21.30;;;14.60;;
4748;SDS011;2388;53.582;9.962;2024-02-28T06:33:42;29.13;;;14.33;;
4748;SDS011;2388;53.582;9.962;2024-02-28T06:36:08;19.70;;;13.33;;
4748;SDS011;2388;53.582;9.962;2024-02-28T06:38:34;23.07;;;14.90;;
4748;SDS011;2388;53.582;9.962;2024-02-28T06:41:01;23.03;;;13.97;;
4748;SDS011;2388;53.582;9.962;2024-02-28T06:43:29;24.07;;;14.30;;
4748;SDS011;2388;53.582;9.962;2024-02-28T06:45:57;20.33;;;13.50;;
4748;SDS011;2388;53.582;9.962;2024-02-28T06:48:23;20.93;;;13.37;;
4748;SDS011;2388;53.582;9.962;2024-02-28T06:50:48;16.30;;;11.43;;
4748;SDS011;2388;53.582;9.962;2024-02-28T06:53:13;19.10;;;12.40;;
4748;SDS011;2388;53.582;9.962;2024-02-28T06:55:39;23.27;;;15.27;;
4748;SDS011;2388;53.582;9.962;2024-02-28T06:58:05;30.03;;;12.20;;
4748;SDS011;2388;53.582;9.962;2024-02-28T07:00:30;18.93;;;11.03;;
4748;SDS011;2388;53.582;9.962;2024-02-28T07:02:55;17.10;;;11.93;;
4748;SDS011;2388;53.582;9.962;2024-02-28T07:05:21;20.17;;;11.37;;
4748;SDS011;2388;53.582;9.962;2024-02-28T07:07:47;18.33;;;11.87;;
4748;SDS011;2388;53.582;9.962;2024-02-28T07:10:12;14.50;;;10.63;;
4748;SDS011;2388;53.582;9.962;2024-02-28T07:12:38;15.30;;;11.37;;
4748;SDS011;2388;53.582;9.962;2024-02-28T07:15:04;22.43;;;12.33;;
4748;SDS011;2388;53.582;9.962;2024-02-28T07:17:29;20.53;;;12.30;;
4748;SDS011;2388;53.582;9.962;2024-02-28T07:19:56;17.87;;;12.00;;
4748;SDS011;2388;53.582;9.962;2024-02-28T07:22:22;15.37;;;11.70;;
4748;SDS011;2388;53.582;9.962;2024-02-28T07:24:48;20.10;;;11.97;;
4748;SDS011;2388;53.582;9.962;2024-02-28T07:27:13;14.33;;;11.40;;
4748;SDS011;2388;53.582;9.962;2024-02-28T07:29:39;16.77;;;10.60;;
4748;SDS011;2388;53.582;9.962;2024-02-28T07:32:04;15.40;;;11.57;;
4748;SDS011;2388;53.582;9.962;2024-02-28T07:34:30;17.63;;;11.77;;
4748;SDS011;2388;53.582;9.962;2024-02-28T07:36:56;14.10;;;9.70;;
4748;SDS011;2388;53.582;9.962;2024-02-28T07:39:22;18.20;;;11.87;;
4748;SDS011;2388;53.582;9.962;2024-02-28T07:41:49;18.43;;;12.40;;
4748;SDS011;2388;53.582;9.962;2024-02-28T07:44:15;16.93;;;12.20;;
4748;SDS011;2388;53.582;9.962;2024-02-28T07:46:41;27.70;;;12.60;;
4748;SDS011;2388;53.582;9.962;2024-02-28T07:49:07;17.30;;;12.10;;
4748;SDS011;2388;53.582;9.962;2024-02-28T07:51:32;16.20;;;11.23;;
4748;SDS011;2388;53.582;9.962;2024-02-28T07:53:58;18.83;;;12.87;;
4748;SDS011;2388;53.582;9.962;2024-02-28T07:56:23;19.83;;;12.63;;
4748;SDS011;2388;53.582;9.962;2024-02-28T07:58:49;18.00;;;11.70;;
4748;SDS011;2388;53.582;9.962;2024-02-28T08:01:14;21.00;;;13.07;;
4748;SDS011;2388;53.582;9.962;2024-02-28T08:03:41;20.63;;;13.73;;
4748;SDS011;2388;53.582;9.962;2024-02-28T08:06:07;20.17;;;13.97;;
4748;SDS011;2388;53.582;9.962;2024-02-28T08:08:33;20.47;;;13.90;;
4748;SDS011;2388;53.582;9.962;2024-02-28T08:11:00;25.60;;;14.40;;
4748;SDS011;2388;53.582;9.962;2024-02-28T08:13:25;24.90;;;14.83;;
4748;SDS011;2388;53.582;9.962;2024-02-28T08:15:53;24.70;;;14.33;;
4748;SDS011;2388;53.582;9.962;2024-02-28T08:18:19;26.87;;;16.07;;
4748;SDS011;2388;53.582;9.962;2024-02-28T08:20:44;24.87;;;16.73;;
4748;SDS011;2388;53.582;9.962;2024-02-28T08:23:10;26.43;;;17.10;;
4748;SDS011;2388;53.582;9.962;2024-02-28T08:25:35;26.30;;;17.37;;
4748;SDS011;2388;53.582;9.962;2024-02-28T08:28:01;27.70;;;17.07;;
4748;SDS011;2388;53.582;9.962;2024-02-28T08:30:26;31.03;;;18.67;;
4748;SDS011;2388;53.582;9.962;2024-02-28T08:32:52;29.00;;;17.97;;
4748;SDS011;2388;53.582;9.962;2024-02-28T08:35:18;28.63;;;17.83;;
4748;SDS011;2388;53.582;9.962;2024-02-28T08:37:44;27.77;;;17.83;;
4748;SDS011;2388;53.582;9.962;2024-02-28T08:40:09;26.80;;;18.90;;
4748;SDS011;2388;53.582;9.962;2024-02-28T08:42:36;27.00;;;17.73;;
4748;SDS011;2388;53.582;9.962;2024-02-28T08:45:02;30.20;;;19.40;;
4748;SDS011;2388;53.582;9.962;2024-02-28T08:47:28;30.03;;;18.17;;
4748;SDS011;2388;53.582;9.962;2024-02-28T08:49:54;34.33;;;20.60;;
4748;SDS011;2388;53.582;9.962;2024-02-28T08:52:20;28.60;;;18.70;;
4748;SDS011;2388;53.582;9.962;2024-02-28T08:54:46;30.93;;;19.60;;
4748;SDS011;2388;53.582;9.962;2024-02-28T08:57:12;31.23;;;19.03;;
4748;SDS011;2388;53.582;9.962;2024-02-28T08:59:38;33.90;;;20.03;;
4748;SDS011;2388;53.582;9.962;2024-02-28T09:02:09;34.10;;;18.73;;
4748;SDS011;2388;53.582;9.962;2024-02-28T09:04:36;35.43;;;19.57;;
4748;SDS011;2388;53.582;9.962;2024-02-28T09:07:01;26.03;;;16.63;;
4748;SDS011;2388;53.582;9.962;2024-02-28T09:09:27;29.70;;;18.90;;
4748;SDS011;2388;53.582;9.962;2024-02-28T09:11:55;30.67;;;19.30;;
4748;SDS011;2388;53.582;9.962;2024-02-28T09:14:20;28.17;;;17.97;;
4748;SDS011;2388;53.582;9.962;2024-02-28T09:16:46;28.50;;;17.90;;
4748;SDS011;2388;53.582;9.962;2024-02-28T09:19:12;27.93;;;18.17;;
4748;SDS011;2388;53.582;9.962;2024-02-28T09:21:38;27.00;;;16.87;;
4748;SDS011;2388;53.582;9.962;2024-02-28T09:24:03;30.00;;;17.87;;
4748;SDS011;2388;53.582;9.962;2024-02-28T09:26:29;29.90;;;17.47;;
4748;SDS011;2388;53.582;9.962;2024-02-28T09:28:54;27.23;;;17.50;;
4748;SDS011;2388;53.582;9.962;2024-02-28T09:31:20;31.33;;;17.40;;
4748;SDS011;2388;53.582;9.962;2024-02-28T09:33:45;28.20;;;16.97;;
4748;SDS011;2388;53.582;9.962;2024-02-28T09:36:11;25.10;;;16.70;;
4748;SDS011;2388;53.582;9.962;2024-02-28T09:38:38;27.53;;;17.07;;
4748;SDS011;2388;53.582;9.962;2024-02-28T09:41:04;26.50;;;15.43;;
4748;SDS011;2388;53.582;9.962;2024-02-28T09:45:57;23.57;;;16.30;;
4748;SDS011;2388;53.582;9.962;2024-02-28T09:48:29;24.40;;;17.10;;
4748;SDS011;2388;53.582;9.962;2024-02-28T09:50:59;28.40;;;17.00;;
4748;SDS011;2388;53.582;9.962;2024-02-28T09:53:25;32.70;;;16.43;;
4748;SDS011;2388;53.582;9.962;2024-02-28T09:55:51;25.70;;;16.10;;
4748;SDS011;2388;53.582;9.962;2024-02-28T09:58:17;28.53;;;18.47;;
4748;SDS011;2388;53.582;9.962;2024-02-28T10:00:46;31.53;;;17.37;;
4748;SDS011;2388;53.582;9.962;2024-02-28T10:03:13;26.50;;;16.80;;
4748;SDS011;2388;53.582;9.962;2024-02-28T10:05:41;25.53;;;15.93;;
4748;SDS011;2388;53.582;9.962;2024-02-28T10:08:07;24.53;;;15.20;;
4748;SDS011;2388;53.582;9.962;2024-02-28T10:10:36;23.80;;;13.80;;
4748;SDS011;2388;53.582;9.962;2024-02-28T10:13:02;22.70;;;15.73;;
4748;SDS011;2388;53.582;9.962;2024-02-28T10:15:28;22.40;;;15.07;;
4748;SDS011;2388;53.582;9.962;2024-02-28T10:17:53;26.60;;;16.20;;
4748;SDS011;2388;53.582;9.962;2024-02-28T10:20:19;42.93;;;15.10;;
4748;SDS011;2388;53.582;9.962;2024-02-28T10:22:45;26.50;;;15.97;;
4748;SDS011;2388;53.582;9.962;2024-02-28T10:25:10;27.70;;;15.60;;
4748;SDS011;2388;53.582;9.962;2024-02-28T10:27:35;22.33;;;14.67;;
4748;SDS011;2388;53.582;9.962;2024-02-28T10:30:02;24.10;;;14.07;;
4748;SDS011;2388;53.582;9.962;2024-02-28T10:32:31;23.70;;;14.90;;
4748;SDS011;2388;53.582;9.962;2024-02-28T10:34:58;20.87;;;14.37;;
4748;SDS011;2388;53.582;9.962;2024-02-28T10:37:25;27.03;;;17.40;;
4748;SDS011;2388;53.582;9.962;2024-02-28T10:39:53;36.03;;;20.57;;
4748;SDS011;2388;53.582;9.962;2024-02-28T10:42:21;29.00;;;18.37;;
4748;SDS011;2388;53.582;9.962;2024-02-28T10:44:48;26.40;;;18.13;;
4748;SDS011;2388;53.582;9.962;2024-02-28T10:47:17;23.50;;;15.67;;
4748;SDS011;2388;53.582;9.962;2024-02-28T10:49:42;24.10;;;15.50;;
4748;SDS011;2388;53.582;9.962;2024-02-28T10:52:09;25.30;;;16.63;;
4748;SDS011;2388;53.582;9.962;2024-02-28T10:54:38;24.77;;;15.07;;
4748;SDS011;2388;53.582;9.962;2024-02-28T10:57:07;22.30;;;15.53;;
4748;SDS011;2388;53.582;9.962;2024-02-28T11:02:16;23.40;;;15.13;;
4748;SDS011;2388;53.582;9.962;2024-02-28T11:04:42;19.23;;;13.10;;
4748;SDS011;2388;53.582;9.962;2024-02-28T11:07:08;19.50;;;12.90;;
4748;SDS011;2388;53.582;9.962;2024-02-28T11:09:33;23.20;;;14.73;;
4748;SDS011;2388;53.582;9.962;2024-02-28T11:11:59;20.57;;;13.53;;
4748;SDS011;2388;53.582;9.962;2024-02-28T11:14:25;27.47;;;16.47;;
4748;SDS011;2388;53.582;9.962;2024-02-28T11:17:03;28.70;;;17.67;;
4748;SDS011;2388;53.582;9.962;2024-02-28T11:19:30;31.50;;;17.13;;
4748;SDS011;2388;53.582;9.962;2024-02-28T11:21:57;28.60;;;18.27;;
4748;SDS011;2388;53.582;9.962;2024-02-28T11:24:24;25.93;;;16.00;;
4748;SDS011;2388;53.582;9.962;2024-02-28T11:26:53;23.83;;;15.03;;
4748;SDS011;2388;53.582;9.962;2024-02-28T11:29:25;23.50;;;15.10;;
4748;SDS011;2388;53.582;9.962;2024-02-28T11:31:53;22.97;;;12.60;;
4748;SDS011;2388;53.582;9.962;2024-02-28T11:34:19;25.10;;;14.40;;
4748;SDS011;2388;53.582;9.962;2024-02-28T11:36:48;21.07;;;13.60;;
4748;SDS011;2388;53.582;9.962;2024-02-28T11:39:15;23.63;;;14.80;;
4748;SDS011;2388;53.582;9.962;2024-02-28T11:41:41;19.90;;;14.10;;
4748;SDS011;2388;53.582;9.962;2024-02-28T11:44:10;22.23;;;14.20;;
4748;SDS011;2388;53.582;9.962;2024-02-28T11:46:49;22.63;;;14.73;;
4748;SDS011;2388;53.582;9.962;2024-02-28T11:49:15;23.20;;;14.00;;
4748;SDS011;2388;53.582;9.962;2024-02-28T11:51:44;28.03;;;15.50;;
4748;SDS011;2388;53.582;9.962;2024-02-28T11:54:10;29.60;;;16.73;;
4748;SDS011;2388;53.582;9.962;2024-02-28T11:56:39;24.53;;;14.90;;
4748;SDS011;2388;53.582;9.962;2024-02-28T11:59:05;24.17;;;14.60;;
4748;SDS011;2388;53.582;9.962;2024-02-28T12:01:35;23.03;;;13.60;;
4748;SDS011;2388;53.582;9.962;2024-02-28T12:04:02;24.40;;;13.93;;
4748;SDS011;2388;53.582;9.962;2024-02-28T12:06:29;24.20;;;15.47;;
4748;SDS011;2388;53.582;9.962;2024-02-28T12:08:55;30.40;;;14.40;;
4748;SDS011;2388;53.582;9.962;2024-02-28T12:11:20;22.87;;;15.80;;
4748;SDS011;2388;53.582;9.962;2024-02-28T12:13:46;24.73;;;13.67;;
4748;SDS011;2388;53.582;9.962;2024-02-28T12:16:11;22.70;;;14.70;;
4748;SDS011;2388;53.582;9.962;2024-02-28T12:18:37;22.17;;;14.63;;
4748;SDS011;2388;53.582;9.962;2024-02-28T12:21:02;22.17;;;13.80;;
4748;SDS011;2388;53.582;9.962;2024-02-28T12:23:28;25.63;;;15.90;;
4748;SDS011;2388;53.582;9.962;2024-02-28T12:25:54;23.30;;;14.23;;
4748;SDS011;2388;53.582;9.962;2024-02-28T12:28:19;24.03;;;15.50;;
4748;SDS011;2388;53.582;9.962;2024-02-28T12:30:45;29.93;;;15.00;;
4748;SDS011;2388;53.582;9.962;2024-02-28T12:33:10;20.07;;;13.43;;
4748;SDS011;2388;53.582;9.962;2024-02-28T12:35:39;19.47;;;13.00;;
4748;SDS011;2388;53.582;9.962;2024-02-28T12:38:04;22.47;;;13.97;;
4748;SDS011;2388;53.582;9.962;2024-02-28T12:40:30;21.90;;;13.53;;
4748;SDS011;2388;53.582;9.962;2024-02-28T12:42:56;18.07;;;13.40;;
4748;SDS011;2388;53.582;9.962;2024-02-28T12:45:21;24.80;;;12.60;;
4748;SDS011;2388;53.582;9.962;2024-02-28T12:47:47;21.23;;;13.00;;
4748;SDS011;2388;53.582;9.962;2024-02-28T12:50:13;18.70;;;12.60;;
4748;SDS011;2388;53.582;9.962;2024-02-28T12:52:38;19.00;;;12.13;;
4748;SDS011;2388;53.582;9.962;2024-02-28T12:55:04;20.57;;;12.40;;
4748;SDS011;2388;53.582;9.962;2024-02-28T12:57:30;20.27;;;12.73;;
4748;SDS011;2388;53.582;9.962;2024-02-28T12:59:55;18.27;;;12.60;;
4748;SDS011;2388;53.582;9.962;2024-02-28T13:02:21;19.97;;;12.30;;
4748;SDS011;2388;53.582;9.962;2024-02-28T13:04:47;23.23;;;13.10;;
4748;SDS011;2388;53.582;9.962;2024-02-28T13:07:13;19.23;;;11.40;;
4748;SDS011;2388;53.582;9.962;2024-02-28T13:09:39;14.33;;;10.47;;
4748;SDS011;2388;53.582;9.962;2024-02-28T13:12:04;14.03;;;10.20;;
4748;SDS011;2388;53.582;9.962;2024-02-28T13:14:30;16.77;;;11.43;;
4748;SDS011;2388;53.582;9.962;2024-02-28T13:16:57;20.53;;;12.07;;
4748;SDS011;2388;53.582;9.962;2024-02-28T13:19:23;18.80;;;12.00;;
4748;SDS011;2388;53.582;9.962;2024-02-28T13:21:49;24.10;;;12.63;;
4748;SDS011;2388;53.582;9.962;2024-02-28T13:24:14;19.73;;;12.47;;
4748;SDS011;2388;53.582;9.962;2024-02-28T13:26:41;19.37;;;11.93;;
4748;SDS011;2388;53.582;9.962;2024-02-28T13:29:06;16.33;;;11.17;;
4748;SDS011;2388;53.582;9.962;2024-02-28T13:31:32;19.43;;;12.80;;
4748;SDS011;2388;53.582;9.962;2024-02-28T13:33:58;19.43;;;11.77;;
4748;SDS011;2388;53.582;9.962;2024-02-28T13:36:25;25.30;;;12.67;;
4748;SDS011;2388;53.582;9.962;2024-02-28T13:38:51;18.33;;;11.40;;
4748;SDS011;2388;53.582;9.962;2024-02-28T13:41:16;19.73;;;12.20;;
4748;SDS011;2388;53.582;9.962;2024-02-28T13:43:42;17.70;;;11.73;;
4748;SDS011;2388;53.582;9.962;2024-02-28T13:46:07;19.63;;;13.00;;
4748;SDS011;2388;53.582;9.962;2024-02-28T13:48:35;22.50;;;13.03;;
4748;SDS011;2388;53.582;9.962;2024-02-28T13:51:00;17.53;;;11.63;;
4748;SDS011;2388;53.582;9.962;2024-02-28T13:53:27;21.63;;;12.03;;
4748;SDS011;2388;53.582;9.962;2024-02-28T13:55:52;21.13;;;12.27;;
4748;SDS011;2388;53.582;9.962;2024-02-28T13:58:18;17.27;;;10.30;;
4748;SDS011;2388;53.582;9.962;2024-02-28T14:00:44;19.40;;;12.50;;
4748;SDS011;2388;53.582;9.962;2024-02-28T14:03:13;20.90;;;11.70;;
4748;SDS011;2388;53.582;9.962;2024-02-28T14:05:39;22.13;;;10.37;;
4748;SDS011;2388;53.582;9.962;2024-02-28T14:08:05;13.03;;;9.57;;
4748;SDS011;2388;53.582;9.962;2024-02-28T14:10:33;15.30;;;10.87;;
4748;SDS011;2388;53.582;9.962;2024-02-28T14:12:59;16.73;;;10.60;;
4748;SDS011;2388;53.582;9.962;2024-02-28T14:15:24;19.37;;;10.40;;
4748;SDS011;2388;53.582;9.962;2024-02-28T14:17:50;20.83;;;10.73;;
4748;SDS011;2388;53.582;9.962;2024-02-28T14:20:19;18.57;;;11.30;;
4748;SDS011;2388;53.582;9.962;2024-02-28T14:22:44;19.23;;;10.80;;
4748;SDS011;2388;53.582;9.962;2024-02-28T14:25:16;17.80;;;10.73;;
4748;SDS011;2388;53.582;9.962;2024-02-28T14:27:43;16.00;;;11.20;;
4748;SDS011;2388;53.582;9.962;2024-02-28T14:30:10;16.53;;;9.80;;
4748;SDS011;2388;53.582;9.962;2024-02-28T14:32:37;19.20;;;11.13;;
4748;SDS011;2388;53.582;9.962;2024-02-28T14:35:06;14.80;;;10.50;;
4748;SDS011;2388;53.582;9.962;2024-02-28T14:37:34;18.10;;;11.57;;
4748;SDS011;2388;53.582;9.962;2024-02-28T14:40:00;18.13;;;9.17;;
4748;SDS011;2388;53.582;9.962;2024-02-28T14:42:29;12.60;;;9.30;;
4748;SDS011;2388;53.582;9.962;2024-02-28T14:44:54;13.77;;;8.43;;
4748;SDS011;2388;53.582;9.962;2024-02-28T14:47:20;13.60;;;9.40;;